Time;durP1;ratioP1;P1;durP2;ratioP2;P2;SDS_P1;SDS_P2;PMS_P1;PMS_P2;Temp;Humidity;BMP_temperature;BMP_pressure;BME280_temperature;BME280_humidity;BME280_pressure;Samples;Min_cycle;Max_cycle;Signal;HPM_P1;HPM_P2
2023/02/16 00:01:39;;;;;;;26.53;16.63;;;;;;;7.98;48.76;98432.09;4983602;28;20431;-69
2023/02/16 00:04:16;;;;;;;23.10;14.80;;;;;;;7.98;48.02;98432.09;5002305;28;20447;-71
2023/02/16 00:06:42;;;;;;;19.83;13.83;;;;;;;7.90;48.90;98427.41;4970885;28;20365;-70
2023/02/16 00:09:07;;;;;;;28.23;14.20;;;;;;;7.87;48.81;98425.03;5001997;28;20527;-69
2023/02/16 00:14:24;;;;;;;24.13;14.10;;;;;;;7.90;48.35;98429.19;5005161;28;20197;-70
2023/02/16 00:16:51;;;;;;;21.70;13.93;;;;;;;7.86;48.31;98430.31;5002770;28;20454;-70
2023/02/16 00:19:22;;;;;;;22.03;14.03;;;;;;;7.91;48.45;98438.69;4994853;28;20578;-70
2023/02/16 00:21:49;;;;;;;25.03;14.87;;;;;;;7.87;48.46;98438.06;4997928;28;20419;-70
2023/02/16 00:24:15;;;;;;;23.97;13.40;;;;;;;7.86;48.17;98432.94;5005353;28;20784;-71
2023/02/16 00:26:41;;;;;;;28.63;16.17;;;;;;;7.81;48.57;98441.91;4998255;28;20436;-70
2023/02/16 00:29:11;;;;;;;23.00;14.60;;;;;;;7.74;48.83;98440.66;4974962;28;20189;-69
2023/02/16 00:31:36;;;;;;;22.47;14.40;;;;;;;7.58;49.77;98438.25;4999329;28;20203;-69
2023/02/16 00:34:27;;;;;;;20.93;14.17;;;;;;;7.67;49.02;98439.44;4997440;28;20929;-69
2023/02/16 00:36:54;;;;;;;21.50;14.67;;;;;;;7.70;49.24;98454.84;4997388;28;20224;-69
2023/02/16 00:39:19;;;;;;;32.47;15.63;;;;;;;7.76;48.74;98449.22;5000749;28;20933;-69
2023/02/16 00:41:52;;;;;;;24.07;15.17;;;;;;;7.69;49.35;98442.75;5002660;28;20419;-70
2023/02/16 00:44:31;;;;;;;22.30;13.80;;;;;;;7.64;48.80;98450.88;4998544;28;20190;-70
2023/02/16 00:47:00;;;;;;;21.27;13.40;;;;;;;7.52;49.23;98454.31;4997733;28;20490;-70
2023/02/16 00:49:25;;;;;;;23.20;13.70;;;;;;;7.62;49.23;98446.72;4997554;28;20432;-69
2023/02/16 00:51:51;;;;;;;22.50;13.83;;;;;;;7.64;48.74;98450.06;5005180;28;20479;-70
2023/02/16 00:54:16;;;;;;;26.00;13.87;;;;;;;7.52;48.86;98452.56;4982613;28;20568;-70
2023/02/16 00:56:42;;;;;;;23.93;13.37;;;;;;;7.53;49.08;98440.34;5010237;28;20306;-69
2023/02/16 00:59:17;;;;;;;23.53;13.30;;;;;;;7.51;48.44;98443.06;4981649;28;20200;-69
2023/02/16 01:01:43;;;;;;;19.83;13.20;;;;;;;7.40;49.45;98450.78;4986599;28;20188;-69
2023/02/16 01:04:11;;;;;;;20.20;13.13;;;;;;;7.47;49.11;98449.41;5004954;28;20798;-69
2023/02/16 01:12:13;;;;;;;25.40;14.90;;;;;;;7.46;49.67;98454.75;5005221;28;20420;-69
2023/02/16 01:14:38;;;;;;;25.67;14.10;;;;;;;7.50;49.59;98445.75;5001606;28;20416;-70
2023/02/16 01:17:04;;;;;;;23.93;13.57;;;;;;;7.59;48.88;98452.97;5005573;28;20459;-70
2023/02/16 01:19:29;;;;;;;21.43;14.40;;;;;;;7.61;48.47;98452.88;4999635;28;20176;-70
2023/02/16 01:21:55;;;;;;;18.87;13.77;;;;;;;7.56;49.07;98457.59;4989592;28;20220;-71
2023/02/16 01:24:20;;;;;;;23.87;14.03;;;;;;;7.53;49.45;98454.22;5008230;28;20660;-69
2023/02/16 01:26:48;;;;;;;23.87;15.10;;;;;;;7.58;48.94;98450.47;5000589;28;20236;-70
2023/02/16 01:29:20;;;;;;;24.17;13.47;;;;;;;7.55;49.43;98458.50;4996458;28;20255;-70
2023/02/16 01:31:45;;;;;;;23.70;14.70;;;;;;;7.51;49.38;98450.03;5002618;28;20430;-70
2023/02/16 01:34:11;;;;;;;21.43;14.20;;;;;;;7.46;49.89;98452.94;5006916;28;21062;-70
2023/02/16 01:36:39;;;;;;;26.13;14.30;;;;;;;7.45;49.48;98445.25;5004983;28;20621;-70
2023/02/16 01:39:04;;;;;;;36.67;14.13;;;;;;;7.33;49.70;98442.50;4986025;28;20476;-70
2023/02/16 01:41:49;;;;;;;22.37;13.00;;;;;;;7.30;50.36;98447.91;5007046;28;20435;-70
2023/02/16 01:44:18;;;;;;;23.50;13.90;;;;;;;7.31;49.93;98433.94;5000209;28;20192;-70
2023/02/16 01:46:59;;;;;;;20.97;13.10;;;;;;;7.26;49.47;98437.78;4989727;28;20444;-69
2023/02/16 01:49:26;;;;;;;20.30;14.40;;;;;;;7.30;49.86;98432.28;5000505;28;20432;-70
2023/02/16 01:51:55;;;;;;;20.33;12.77;;;;;;;7.35;49.78;98434.56;4995082;28;20798;-69
2023/02/16 01:54:39;;;;;;;18.13;12.17;;;;;;;7.41;48.94;98428.09;5003120;28;20470;-69
2023/02/16 01:57:07;;;;;;;18.57;12.03;;;;;;;7.35;49.03;98434.56;4996210;28;20440;-70
2023/02/16 01:59:41;;;;;;;20.10;13.07;;;;;;;7.40;49.32;98426.44;4975524;28;20501;-71
2023/02/16 02:02:16;;;;;;;22.27;13.90;;;;;;;7.35;49.35;98418.91;5004027;28;20876;-70
2023/02/16 02:07:59;;;;;;;19.83;13.03;;;;;;;7.29;49.46;98416.75;5002640;28;21253;-70
2023/02/16 02:11:03;;;;;;;20.37;13.40;;;;;;;7.28;49.68;98421.09;5006027;28;20428;-69
2023/02/16 02:13:31;;;;;;;25.90;13.47;;;;;;;6.97;50.44;98415.31;4970028;28;20872;-70
2023/02/16 02:15:58;;;;;;;20.00;13.10;;;;;;;6.86;50.93;98413.38;4983992;28;20415;-70
2023/02/16 02:18:24;;;;;;;21.30;12.70;;;;;;;6.92;50.70;98412.16;4986573;28;20526;-70
2023/02/16 02:24:14;;;;;;;21.77;14.13;;;;;;;7.08;50.06;98409.38;4991592;28;20419;-71
2023/02/16 02:27:07;;;;;;;21.60;13.40;;;;;;;7.03;50.14;98408.84;5003418;28;20537;-71
2023/02/16 02:29:42;;;;;;;21.73;13.53;;;;;;;7.07;50.36;98407.69;5002866;28;20415;-70
2023/02/16 02:32:22;;;;;;;18.93;12.90;;;;;;;7.10;50.35;98409.28;4981607;28;20538;-69
2023/02/16 02:34:58;;;;;;;19.20;11.97;;;;;;;7.12;50.07;98410.03;4994840;28;20427;-69
2023/02/16 02:37:35;;;;;;;18.00;12.53;;;;;;;6.91;50.58;98405.28;5001790;28;20470;-71
2023/02/16 02:40:25;;;;;;;23.77;13.20;;;;;;;6.84;50.12;98409.22;5003786;28;20419;-70
2023/02/16 02:43:13;;;;;;;20.83;13.50;;;;;;;6.86;50.48;98402.16;4987554;28;20431;-70
2023/02/16 02:45:46;;;;;;;20.40;11.97;;;;;;;6.81;50.34;98399.00;4989908;28;20466;-68
2023/02/16 02:48:11;;;;;;;19.13;11.23;;;;;;;6.84;49.97;98394.41;4984039;28;20725;-70
2023/02/16 02:53:45;;;;;;;18.23;11.70;;;;;;;6.85;50.10;98405.69;4987876;28;20648;-70
2023/02/16 03:01:52;;;;;;;17.27;11.83;;;;;;;6.78;50.15;98399.19;4999942;28;20444;-69
2023/02/16 03:04:26;;;;;;;19.27;11.87;;;;;;;6.77;50.34;98400.97;5004102;28;20945;-70
2023/02/16 03:06:52;;;;;;;21.00;11.47;;;;;;;6.82;50.20;98400.66;4985684;28;20443;-70
2023/02/16 03:09:19;;;;;;;18.43;11.30;;;;;;;6.86;49.96;98396.94;4988104;28;20423;-69
2023/02/16 03:14:40;;;;;;;18.03;11.07;;;;;;;6.76;50.22;98389.69;4983838;28;20416;-70
2023/02/16 03:30:58;;;;;;;17.20;10.60;;;;;;;6.86;50.01;98386.50;4984087;28;21147;-70
2023/02/16 03:33:24;;;;;;;17.97;10.13;;;;;;;6.90;50.30;98383.59;4986042;28;20432;-69
2023/02/16 03:35:50;;;;;;;15.63;10.50;;;;;;;6.85;50.01;98393.47;4984752;28;20415;-70
2023/02/16 03:38:15;;;;;;;19.50;11.77;;;;;;;6.75;50.32;98395.84;4985904;28;20424;-70
2023/02/16 03:40:42;;;;;;;19.67;11.13;;;;;;;6.76;50.35;98394.06;5000975;28;20176;-70
2023/02/16 03:43:08;;;;;;;14.20;9.67;;;;;;;6.80;50.27;98395.56;4981954;28;20264;-69
2023/02/16 03:45:36;;;;;;;18.70;11.07;;;;;;;6.71;50.44;98393.53;5003587;28;20555;-70
2023/02/16 03:48:02;;;;;;;25.53;11.60;;;;;;;6.69;50.65;98391.03;4981249;28;20279;-71
2023/02/16 03:50:27;;;;;;;18.10;11.33;;;;;;;6.64;50.99;98392.25;5001476;28;20446;-70
2023/02/16 03:53:06;;;;;;;17.63;11.30;;;;;;;6.63;51.25;98395.78;5002039;28;20411;-71
2023/02/16 03:55:36;;;;;;;16.90;11.20;;;;;;;6.70;50.98;98405.72;5004688;28;20851;-70
2023/02/16 03:58:03;;;;;;;18.40;11.93;;;;;;;6.79;50.75;98399.09;5002429;28;20435;-70
2023/02/16 04:00:29;;;;;;;19.43;11.10;;;;;;;6.78;51.27;98394.81;5001355;28;20443;-68
2023/02/16 04:02:54;;;;;;;19.67;11.83;;;;;;;6.76;51.51;98407.94;5002527;28;20423;-70
2023/02/16 04:05:20;;;;;;;19.33;10.70;;;;;;;6.89;51.05;98407.97;5004662;28;20203;-71
2023/02/16 04:07:46;;;;;;;20.07;12.23;;;;;;;6.88;50.86;98408.91;5001568;28;20191;-69
2023/02/16 04:10:11;;;;;;;17.13;11.50;;;;;;;6.88;50.63;98406.31;5005562;28;20482;-70
2023/02/16 04:12:37;;;;;;;23.60;13.30;;;;;;;6.84;51.08;98407.44;4994059;28;20180;-70
2023/02/16 04:15:22;;;;;;;19.90;11.70;;;;;;;6.86;51.25;98408.19;5002429;28;20192;-70
2023/02/16 04:17:48;;;;;;;16.60;11.40;;;;;;;6.83;51.38;98413.59;4992781;28;20212;-70
2023/02/16 04:20:17;;;;;;;17.70;11.10;;;;;;;6.84;51.11;98415.25;4986684;28;20879;-70
2023/02/16 04:22:42;;;;;;;18.13;11.27;;;;;;;6.73;50.98;98417.72;4996149;28;20188;-70
2023/02/16 04:25:08;;;;;;;17.27;11.07;;;;;;;6.79;51.09;98417.34;5004483;28;20500;-70
2023/02/16 04:27:34;;;;;;;18.30;11.77;;;;;;;6.68;51.24;98409.38;5001940;28;20223;-71
2023/02/16 04:30:00;;;;;;;21.00;10.60;;;;;;;6.64;51.99;98423.53;4985082;28;20459;-70
2023/02/16 04:32:25;;;;;;;19.07;11.23;;;;;;;6.75;51.33;98413.25;5009187;28;20578;-70
2023/02/16 04:34:50;;;;;;;13.67;10.23;;;;;;;6.72;51.68;98419.50;5002604;28;20419;-70
2023/02/16 04:37:16;;;;;;;18.33;10.80;;;;;;;6.77;51.41;98416.59;4990235;28;20204;-70
2023/02/16 04:39:41;;;;;;;15.53;10.30;;;;;;;6.80;51.14;98412.94;4996178;28;20200;-70
2023/02/16 04:42:07;;;;;;;17.40;10.90;;;;;;;6.78;51.63;98412.22;5007403;28;20667;-68
2023/02/16 04:44:32;;;;;;;14.63;10.30;;;;;;;6.80;51.53;98421.63;5007770;28;20235;-69
2023/02/16 04:46:58;;;;;;;20.40;12.57;;;;;;;6.90;50.96;98420.09;4996711;28;20247;-69
2023/02/16 04:49:23;;;;;;;16.03;10.43;;;;;;;6.97;50.86;98415.31;5002522;28;20177;-70
2023/02/16 04:51:48;;;;;;;19.93;10.73;;;;;;;6.96;50.77;98418.84;5002641;28;20177;-70
2023/02/16 04:54:14;;;;;;;16.40;11.63;;;;;;;6.88;50.49;98410.66;5007468;28;20184;-71
2023/02/16 04:56:42;;;;;;;21.93;11.33;;;;;;;6.85;50.82;98416.94;4997022;28;20193;-69
2023/02/16 04:59:08;;;;;;;16.70;11.00;;;;;;;6.73;50.96;98417.72;5002325;28;20193;-70
2023/02/16 05:01:33;;;;;;;16.53;10.00;;;;;;;6.78;50.74;98404.38;5004335;28;20419;-70
2023/02/16 05:03:59;;;;;;;17.40;10.80;;;;;;;6.78;50.89;98412.22;5002898;28;20247;-70
2023/02/16 05:06:24;;;;;;;17.30;9.30;;;;;;;6.76;51.00;98399.28;5003206;28;20225;-71
2023/02/16 05:08:50;;;;;;;16.67;11.43;;;;;;;6.72;51.07;98418.66;5004663;28;20264;-71
2023/02/16 05:16:44;;;;;;;18.43;10.77;;;;;;;6.60;50.80;98408.06;5006153;28;20469;-71
2023/02/16 05:19:09;;;;;;;17.47;10.63;;;;;;;6.62;50.96;98405.38;5002094;28;20428;-69
2023/02/16 05:21:35;;;;;;;19.10;10.27;;;;;;;6.54;51.20;98412.84;5006700;28;20192;-70
2023/02/16 05:24:09;;;;;;;17.80;11.10;;;;;;;6.52;51.11;98412.94;4986274;28;20182;-69
2023/02/16 05:26:35;;;;;;;16.67;10.40;;;;;;;6.52;51.23;98418.16;4992079;28;20208;-69
2023/02/16 05:29:01;;;;;;;16.00;10.70;;;;;;;6.51;51.43;98411.28;5005492;28;20447;-70
2023/02/16 05:31:27;;;;;;;16.50;10.47;;;;;;;6.53;51.30;98412.03;5000347;28;20432;-70
2023/02/16 05:33:53;;;;;;;20.53;11.17;;;;;;;6.54;51.25;98418.06;4988905;28;20416;-70
2023/02/16 05:36:18;;;;;;;19.33;11.50;;;;;;;6.53;51.29;98416.38;4994333;28;20197;-70
2023/02/16 05:38:43;;;;;;;18.13;10.43;;;;;;;6.60;51.32;98422.88;5006880;28;20178;-70
2023/02/16 05:41:09;;;;;;;14.70;10.53;;;;;;;6.61;50.74;98425.38;5000729;28;20211;-70
2023/02/16 05:43:35;;;;;;;15.30;10.40;;;;;;;6.59;50.73;98427.25;5007966;28;20181;-69
2023/02/16 05:46:07;;;;;;;18.60;11.67;;;;;;;6.53;50.82;98419.84;5005213;28;20546;-70
2023/02/16 05:48:32;;;;;;;17.60;10.40;;;;;;;6.55;50.79;98427.53;5000093;28;20230;-69
2023/02/16 05:50:57;;;;;;;17.73;11.07;;;;;;;6.58;50.99;98428.19;5002816;28;20423;-70
2023/02/16 05:53:23;;;;;;;21.87;11.00;;;;;;;6.57;51.56;98433.50;5001860;28;20237;-69
2023/02/16 05:55:48;;;;;;;17.13;11.20;;;;;;;6.57;51.40;98431.72;5006635;28;20231;-71
2023/02/16 05:58:14;;;;;;;15.43;9.50;;;;;;;6.68;51.29;98430.22;5003226;28;20267;-70
2023/02/16 06:00:39;;;;;;;18.57;11.07;;;;;;;6.73;51.16;98441.16;4994543;28;20596;-69
2023/02/16 06:03:05;;;;;;;18.33;11.40;;;;;;;6.68;51.10;98440.66;5005544;28;20247;-69
2023/02/16 06:05:30;;;;;;;19.43;11.47;;;;;;;6.63;50.77;98447.91;5001037;28;20666;-70
2023/02/16 06:07:55;;;;;;;15.90;10.60;;;;;;;6.68;51.21;98445.84;5006637;28;20203;-71
2023/02/16 06:10:21;;;;;;;21.30;11.13;;;;;;;6.45;51.28;98455.94;4995231;28;20276;-70
2023/02/16 06:12:46;;;;;;;22.43;12.80;;;;;;;6.48;51.65;98439.28;4999738;28;20192;-71
2023/02/16 06:15:12;;;;;;;18.23;11.60;;;;;;;6.43;51.89;98463.00;4995778;28;20189;-69
2023/02/16 06:17:37;;;;;;;21.70;13.20;;;;;;;6.37;51.75;98455.56;4990998;28;20240;-71
2023/02/16 06:20:04;;;;;;;20.77;13.03;;;;;;;6.26;51.86;98464.03;4976681;28;20184;-71
2023/02/16 06:22:29;;;;;;;21.73;13.57;;;;;;;6.33;51.76;98467.97;5004154;28;20173;-69
2023/02/16 06:24:55;;;;;;;22.50;13.20;;;;;;;6.35;51.70;98473.06;5004332;28;20501;-69
2023/02/16 06:27:20;;;;;;;22.53;12.73;;;;;;;6.34;52.13;98472.22;5006700;28;20204;-70
2023/02/16 06:29:45;;;;;;;20.63;13.27;;;;;;;6.38;51.49;98480.69;4993444;28;20184;-70
2023/02/16 06:32:11;;;;;;;19.87;12.90;;;;;;;6.33;51.51;98472.31;5003940;28;20227;-69
2023/02/16 06:34:36;;;;;;;19.37;13.00;;;;;;;6.25;51.75;98480.59;4990616;28;20188;-69
2023/02/16 06:37:02;;;;;;;20.47;13.60;;;;;;;6.26;51.86;98475.31;4994766;28;20232;-70
2023/02/16 06:39:27;;;;;;;29.23;13.10;;;;;;;6.27;52.21;98476.13;4979329;28;20256;-70
2023/02/16 06:41:52;;;;;;;18.23;12.37;;;;;;;6.25;52.03;98475.38;4987788;28;20227;-67
2023/02/16 06:44:18;;;;;;;17.57;12.37;;;;;;;6.22;51.83;98476.41;4998772;28;20283;-70
2023/02/16 06:46:45;;;;;;;22.07;12.83;;;;;;;6.17;51.98;98475.88;4985350;28;20248;-70
2023/02/16 06:49:12;;;;;;;23.27;13.20;;;;;;;6.05;52.42;98468.81;4994762;28;20189;-70
2023/02/16 06:51:37;;;;;;;22.70;12.70;;;;;;;6.09;52.33;98473.72;4991814;28;20420;-69
2023/02/16 06:54:03;;;;;;;18.53;12.20;;;;;;;6.13;52.28;98467.41;4972393;28;21042;-70
2023/02/16 06:56:29;;;;;;;19.90;11.97;;;;;;;6.18;52.30;98479.31;4994372;28;20235;-70
2023/02/16 06:58:54;;;;;;;19.23;12.20;;;;;;;6.21;52.18;98477.34;4995797;28;20181;-68
2023/02/16 07:01:24;;;;;;;19.43;12.30;;;;;;;6.22;52.47;98480.81;4993599;28;20196;-70
2023/02/16 07:03:50;;;;;;;22.77;12.03;;;;;;;6.23;52.30;98485.09;4987871;28;20201;-70
2023/02/16 07:06:16;;;;;;;20.20;11.93;;;;;;;6.23;52.73;98485.09;4992200;28;20467;-69
2023/02/16 07:08:41;;;;;;;16.53;12.10;;;;;;;6.34;53.03;98492.22;4992085;28;20467;-69
2023/02/16 07:11:07;;;;;;;20.20;13.20;;;;;;;6.52;53.47;98487.63;4992209;28;20185;-70
2023/02/16 07:13:35;;;;;;;29.30;16.20;;;;;;;6.76;53.36;98480.88;4992934;28;20180;-69
2023/02/16 07:16:02;;;;;;;26.30;13.70;;;;;;;6.98;52.69;98479.56;4992342;28;20185;-71
2023/02/16 07:18:27;;;;;;;20.50;12.43;;;;;;;7.13;52.20;98477.72;4989802;28;20458;-70
2023/02/16 07:20:52;;;;;;;25.30;13.20;;;;;;;7.18;52.15;98483.44;4990981;28;20507;-70
2023/02/16 07:23:18;;;;;;;26.10;14.03;;;;;;;7.09;52.11;98478.84;4998204;28;20238;-72
2023/02/16 07:25:43;;;;;;;25.23;13.40;;;;;;;7.19;52.51;98477.31;4999434;28;20312;-71
2023/02/16 07:28:09;;;;;;;22.80;14.93;;;;;;;7.33;52.48;98480.78;5000252;28;20201;-69
2023/02/16 07:30:35;;;;;;;22.10;14.17;;;;;;;7.42;51.41;98488.03;5002144;28;20204;-69
2023/02/16 07:33:00;;;;;;;22.23;14.67;;;;;;;7.35;51.06;98489.34;4992927;28;20193;-69
2023/02/16 07:35:26;;;;;;;23.90;14.33;;;;;;;7.42;51.47;98487.16;4975338;28;20416;-70
2023/02/16 07:37:51;;;;;;;30.10;14.73;;;;;;;7.36;51.57;98485.81;4989165;28;20242;-70
2023/02/16 07:40:17;;;;;;;27.40;15.67;;;;;;;7.43;51.60;98488.84;4998586;28;20191;-69
2023/02/16 07:42:42;;;;;;;23.30;13.50;;;;;;;7.47;51.25;98485.94;5002330;28;20250;-69
2023/02/16 07:45:08;;;;;;;24.43;14.00;;;;;;;7.48;51.07;98482.38;4991818;28;20581;-68
2023/02/16 07:47:33;;;;;;;25.07;14.63;;;;;;;7.40;51.64;98489.91;4989265;28;20208;-69
2023/02/16 07:49:59;;;;;;;26.43;16.93;;;;;;;7.43;51.30;98486.25;4997999;28;20212;-69
2023/02/16 07:52:29;;;;;;;27.03;17.17;;;;;;;7.55;51.58;98489.81;4994053;28;20264;-73
2023/02/16 07:54:58;;;;;;;27.23;14.83;;;;;;;7.71;51.04;98495.69;5002772;28;20187;-70
2023/02/16 07:57:25;;;;;;;27.00;15.00;;;;;;;7.78;51.53;98501.31;4993302;28;20440;-70
2023/02/16 07:59:54;;;;;;;24.80;15.17;;;;;;;7.86;51.13;98501.66;4994691;28;20490;-71
2023/02/16 08:02:20;;;;;;;23.80;15.33;;;;;;;7.96;51.64;98501.84;5000436;28;20471;-70
2023/02/16 08:04:47;;;;;;;28.93;15.33;;;;;;;8.03;51.05;98507.50;4985204;28;20431;-70
2023/02/16 08:07:16;;;;;;;22.40;15.20;;;;;;;8.12;51.12;98515.53;5005142;28;20508;-70
2023/02/16 08:09:42;;;;;;;22.63;14.30;;;;;;;8.23;51.20;98508.75;5007924;28;20419;-70
2023/02/16 08:12:11;;;;;;;27.30;14.80;;;;;;;8.33;50.73;98506.34;4998008;28;20459;-69
2023/02/16 08:14:37;;;;;;;26.20;16.07;;;;;;;8.42;51.13;98501.31;4985760;28;20284;-70
2023/02/16 08:17:03;;;;;;;22.23;14.40;;;;;;;8.66;51.43;98505.81;5000921;28;20488;-69
2023/02/16 08:19:29;;;;;;;22.23;14.60;;;;;;;8.90;50.47;98516.28;5003012;28;20180;-70
2023/02/16 08:21:54;;;;;;;25.20;16.37;;;;;;;9.17;49.82;98506.56;5004023;28;20422;-70
2023/02/16 08:24:20;;;;;;;26.17;15.40;;;;;;;9.51;49.44;98506.69;5005661;28;20647;-71
2023/02/16 08:26:48;;;;;;;25.90;15.27;;;;;;;9.90;48.54;98501.19;4999690;28;20208;-71
2023/02/16 08:29:16;;;;;;;24.20;16.30;;;;;;;10.25;47.43;98510.78;5001314;28;20245;-71
2023/02/16 08:31:44;;;;;;;26.40;15.27;;;;;;;10.67;46.45;98515.47;5003644;28;20502;-71
2023/02/16 08:34:10;;;;;;;23.17;14.20;;;;;;;11.12;45.47;98506.66;5007497;28;20431;-70
2023/02/16 08:36:37;;;;;;;22.63;14.50;;;;;;;11.53;44.50;98507.69;5003531;28;20427;-71
2023/02/16 08:39:10;;;;;;;24.50;15.10;;;;;;;12.01;43.77;98505.56;4998537;28;20239;-71
2023/02/16 08:41:36;;;;;;;18.97;13.20;;;;;;;12.46;43.04;98505.22;4986160;28;20455;-70
2023/02/16 08:44:03;;;;;;;22.37;13.90;;;;;;;12.85;42.15;98496.63;5001271;28;20430;-71
2023/02/16 08:46:29;;;;;;;19.37;13.50;;;;;;;13.26;41.14;98497.34;5003572;28;20465;-71
2023/02/16 08:48:58;;;;;;;26.30;13.63;;;;;;;13.61;40.89;98493.34;5005115;28;20427;-70
2023/02/16 08:51:27;;;;;;;22.50;14.40;;;;;;;13.89;39.50;98488.19;5005654;28;20506;-70
2023/02/16 08:53:52;;;;;;;23.90;15.07;;;;;;;14.23;39.24;98495.59;5005508;28;21018;-71
2023/02/16 08:56:18;;;;;;;26.00;14.23;;;;;;;14.59;38.56;98494.88;5007859;28;20485;-71
2023/02/16 08:58:44;;;;;;;24.20;14.67;;;;;;;14.78;38.47;98490.53;5003108;28;20230;-71
2023/02/16 09:01:11;;;;;;;25.33;13.90;;;;;;;14.95;38.08;98488.88;4993358;28;20421;-71
2023/02/16 09:03:40;;;;;;;21.90;15.07;;;;;;;15.14;37.45;98483.44;5010590;28;20434;-70
2023/02/16 09:06:05;;;;;;;27.90;15.10;;;;;;;15.43;37.15;98481.59;4998511;28;20459;-71
2023/02/16 09:08:31;;;;;;;25.40;14.87;;;;;;;15.73;36.35;98480.34;5010601;28;20477;-71
2023/02/16 09:11:05;;;;;;;22.07;14.57;;;;;;;16.10;36.12;98484.56;5000957;28;20248;-70
2023/02/16 09:13:32;;;;;;;26.50;17.37;;;;;;;16.26;35.15;98482.97;5003543;28;20433;-71
2023/02/16 09:16:03;;;;;;;21.00;12.80;;;;;;;16.30;33.64;98473.75;5004716;28;20511;-70
2023/02/16 09:18:29;;;;;;;14.60;10.80;;;;;;;16.52;32.62;98467.06;4996206;28;20466;-71
2023/02/16 09:20:55;;;;;;;19.77;9.63;;;;;;;16.72;31.78;98472.94;5003466;28;20936;-71
2023/02/16 09:23:21;;;;;;;15.17;9.33;;;;;;;16.83;31.83;98473.63;5003574;28;20193;-70
2023/02/16 09:25:47;;;;;;;15.57;9.87;;;;;;;17.11;31.49;98468.09;4992840;28;20457;-70
2023/02/16 09:28:12;;;;;;;19.73;8.67;;;;;;;17.31;31.24;98469.41;4999163;28;20198;-71
2023/02/16 09:30:38;;;;;;;14.67;8.60;;;;;;;17.57;30.90;98478.22;5003882;28;20183;-71
2023/02/16 09:33:04;;;;;;;15.27;9.40;;;;;;;17.81;30.19;98478.19;5005099;28;20199;-71
2023/02/16 09:35:29;;;;;;;13.40;9.10;;;;;;;17.96;29.81;98474.84;5003849;28;20247;-71
2023/02/16 09:37:56;;;;;;;15.67;8.67;;;;;;;18.36;29.67;98474.94;5007566;28;20199;-71
2023/02/16 09:40:22;;;;;;;18.13;9.10;;;;;;;18.57;29.02;98469.88;5003401;28;20195;-71
2023/02/16 09:43:07;;;;;;;15.23;8.90;;;;;;;18.85;29.09;98480.03;4988237;28;20415;-70
2023/02/16 09:45:40;;;;;;;17.30;8.53;;;;;;;18.67;28.53;98482.09;4997765;28;20200;-70
2023/02/16 09:48:11;;;;;;;14.13;8.90;;;;;;;18.82;28.24;98480.38;4983840;28;20815;-71
2023/02/16 09:50:38;;;;;;;22.83;8.67;;;;;;;18.68;28.15;98475.78;4981674;28;20973;-71
2023/02/16 09:53:12;;;;;;;15.63;9.10;;;;;;;18.76;27.39;98470.47;5004662;28;20415;-71
2023/02/16 09:55:48;;;;;;;14.83;8.30;;;;;;;18.96;27.49;98470.03;4984088;28;20403;-71
2023/02/16 09:58:20;;;;;;;12.87;8.90;;;;;;;19.29;26.98;98460.00;4986997;28;20543;-70
2023/02/16 10:00:56;;;;;;;12.67;7.17;;;;;;;19.56;26.53;98457.81;4981839;28;20504;-71
2023/02/16 10:03:36;;;;;;;13.47;8.13;;;;;;;19.51;25.77;98462.00;4991963;28;20419;-71
2023/02/16 10:06:17;;;;;;;11.10;6.63;;;;;;;19.85;25.92;98450.88;5002880;28;20464;-70
2023/02/16 10:08:44;;;;;;;12.40;7.07;;;;;;;20.14;25.70;98457.25;4987035;28;20811;-70
2023/02/16 10:11:37;;;;;;;10.10;7.47;;;;;;;20.25;25.24;98455.97;4978387;28;20454;-71
2023/02/16 10:14:10;;;;;;;10.90;7.27;;;;;;;20.52;24.78;98459.81;5000864;28;20826;-72
2023/02/16 10:16:40;;;;;;;12.67;7.70;;;;;;;20.77;24.60;98451.53;4977918;28;20861;-71
2023/02/16 10:19:31;;;;;;;12.40;7.60;;;;;;;21.05;24.48;98452.63;4998499;28;20518;-71
2023/02/16 10:21:59;;;;;;;10.70;7.10;;;;;;;21.33;24.36;98450.84;4976962;28;20482;-71
2023/02/16 10:24:26;;;;;;;10.40;6.67;;;;;;;21.55;23.88;98461.47;4985940;28;20910;-71
2023/02/16 10:27:14;;;;;;;13.00;6.87;;;;;;;21.26;23.73;98454.47;4982978;28;20462;-71
2023/02/16 10:29:40;;;;;;;12.60;7.00;;;;;;;21.61;23.87;98451.94;5000714;28;20417;-71
2023/02/16 10:32:25;;;;;;;10.60;6.40;;;;;;;21.68;23.39;98444.81;5004516;28;20442;-71
2023/02/16 10:34:57;;;;;;;11.00;7.20;;;;;;;21.73;23.06;98450.41;4998662;28;20238;-72
2023/02/16 10:37:51;;;;;;;8.50;6.73;;;;;;;21.98;23.08;98441.94;4989625;28;20439;-71
2023/02/16 10:40:25;;;;;;;8.50;6.47;;;;;;;21.98;23.00;98441.94;4981738;28;20475;-72
2023/02/16 10:42:57;;;;;;;7.33;6.47;;;;;;;22.38;22.68;98441.31;5004788;28;20421;-71
2023/02/16 10:45:52;;;;;;;12.00;7.60;;;;;;;22.03;22.73;98433.34;4985344;28;20801;-71
2023/02/16 10:48:22;;;;;;;9.03;6.47;;;;;;;22.45;22.66;98436.84;4994076;28;20555;-71
2023/02/16 10:50:57;;;;;;;10.10;6.50;;;;;;;22.73;22.09;98441.28;5005628;28;20455;-71
2023/02/16 10:53:40;;;;;;;11.40;6.77;;;;;;;22.73;21.93;98432.44;4983940;28;20420;-72
2023/02/16 10:56:40;;;;;;;11.30;5.20;;;;;;;22.78;21.87;98425.47;4988426;28;20919;-72
2023/02/16 10:59:39;;;;;;;8.93;5.47;;;;;;;23.25;21.82;98420.22;4974823;28;20432;-71
2023/02/16 11:02:23;;;;;;;7.23;5.87;;;;;;;22.98;21.63;98432.69;4972406;28;20470;-71
2023/02/16 11:04:51;;;;;;;9.30;5.70;;;;;;;23.37;21.66;98423.09;4994180;28;20411;-72
2023/02/16 11:07:22;;;;;;;8.87;5.60;;;;;;;23.56;21.48;98418.78;5002157;28;20443;-71
2023/02/16 11:09:51;;;;;;;8.43;5.40;;;;;;;23.58;21.56;98413.22;5006354;28;20823;-72
2023/02/16 11:12:34;;;;;;;8.67;5.43;;;;;;;23.95;21.18;98418.91;5000120;28;20518;-71
2023/02/16 11:15:12;;;;;;;7.23;5.13;;;;;;;24.13;20.72;98414.78;4985326;28;20946;-71
2023/02/16 11:18:10;;;;;;;9.10;5.37;;;;;;;23.87;20.55;98411.97;4988396;28;20487;-72
2023/02/16 11:20:44;;;;;;;8.10;5.43;;;;;;;24.22;20.47;98408.16;4976760;28;21005;-71
2023/02/16 11:23:16;;;;;;;9.33;5.33;;;;;;;24.15;20.34;98407.38;4997338;28;20463;-71
2023/02/16 11:25:43;;;;;;;9.43;5.27;;;;;;;24.08;20.08;98394.81;5009246;28;20470;-71
2023/02/16 11:28:10;;;;;;;8.30;5.63;;;;;;;23.76;20.13;98400.03;4978183;28;20455;-70
2023/02/16 11:30:37;;;;;;;8.63;5.57;;;;;;;23.78;20.31;98397.97;5001646;28;20420;-71
2023/02/16 11:33:17;;;;;;;6.30;5.10;;;;;;;23.99;20.37;98397.97;4985636;28;20451;-71
2023/02/16 11:35:43;;;;;;;7.57;5.47;;;;;;;24.06;20.38;98394.22;4972141;28;20423;-71
2023/02/16 11:38:24;;;;;;;6.60;5.00;;;;;;;24.22;20.67;98392.09;5003687;28;20441;-70
2023/02/16 11:40:50;;;;;;;12.87;5.73;;;;;;;24.14;20.91;98395.81;5002929;28;20419;-72
2023/02/16 11:43:16;;;;;;;8.00;5.00;;;;;;;24.15;20.48;98397.47;4984053;28;20428;-71
2023/02/16 11:45:42;;;;;;;12.40;5.07;;;;;;;24.35;20.62;98391.22;4986752;28;20478;-70
2023/02/16 11:48:12;;;;;;;8.30;5.37;;;;;;;24.20;20.16;98391.47;4999659;28;20447;-69
2023/02/16 11:50:40;;;;;;;7.10;5.00;;;;;;;24.27;20.67;98386.09;5005362;28;20239;-70
2023/02/16 11:53:09;;;;;;;9.73;5.53;;;;;;;23.91;20.51;98389.06;4984368;28;20765;-71
2023/02/16 11:55:36;;;;;;;7.50;4.63;;;;;;;24.15;21.02;98386.75;4998483;28;20482;-72
2023/02/16 11:58:14;;;;;;;7.57;5.10;;;;;;;24.07;20.95;98376.28;5002516;28;20443;-72
2023/02/16 12:00:46;;;;;;;6.07;4.53;;;;;;;24.00;20.83;98379.00;4994468;28;21002;-71
2023/02/16 12:03:20;;;;;;;6.77;4.70;;;;;;;24.07;21.12;98369.06;4987421;28;20473;-71
2023/02/16 12:05:48;;;;;;;6.80;5.17;;;;;;;24.29;21.23;98366.13;4984483;28;20480;-71
2023/02/16 12:08:43;;;;;;;8.63;5.00;;;;;;;24.35;21.23;98362.56;5005261;28;20479;-71
2023/02/16 12:12:01;;;;;;;6.90;4.70;;;;;;;24.18;20.78;98354.22;4981095;28;20419;-71
2023/02/16 12:14:33;;;;;;;6.80;4.63;;;;;;;24.40;20.66;98353.91;4980509;28;20832;-71
2023/02/16 12:17:23;;;;;;;7.30;4.80;;;;;;;24.41;20.77;98358.22;4980307;28;20992;-71
2023/02/16 12:20:04;;;;;;;8.07;4.43;;;;;;;24.60;21.43;98343.06;4989456;28;20431;-72
2023/02/16 12:22:36;;;;;;;7.97;5.07;;;;;;;24.57;21.01;98345.38;4985635;28;20946;-71
2023/02/16 12:25:18;;;;;;;8.40;5.13;;;;;;;24.27;21.26;98345.94;4986654;28;20470;-71